createdAt,value
2022-09-23T00:00:48.988Z,4.10
2022-09-23T00:03:17.697Z,3.99
2022-09-23T00:05:45.068Z,4.01
2022-09-23T00:08:13.119Z,4.01
2022-09-23T00:10:41.222Z,4.03
2022-09-23T00:13:08.840Z,4.14
2022-09-23T00:15:39.648Z,4.20
2022-09-23T00:18:08.025Z,4.22
2022-09-23T00:20:37.120Z,4.28
2022-09-23T00:23:04.607Z,4.33
2022-09-23T00:25:32.081Z,4.37
2022-09-23T00:27:59.818Z,4.40
2022-09-23T00:30:27.253Z,4.50
2022-09-23T00:32:56.643Z,4.55
2022-09-23T00:35:24.162Z,4.62
2022-09-23T00:37:53.059Z,4.68
2022-09-23T00:40:20.599Z,4.65
2022-09-23T00:42:49.277Z,4.69
2022-09-23T00:45:17.796Z,4.70
2022-09-23T00:47:49.061Z,4.63
2022-09-23T00:50:23.565Z,4.60
2022-09-23T00:52:54.754Z,4.57
2022-09-23T00:55:26.056Z,4.56
2022-09-23T00:57:56.316Z,4.56
2022-09-23T01:00:24.790Z,4.59
2022-09-23T01:02:52.335Z,4.58
2022-09-23T01:05:20.554Z,4.59
2022-09-23T01:07:48.238Z,4.60
2022-09-23T01:10:18.594Z,4.65
2022-09-23T01:13:08.054Z,4.74
2022-09-23T01:15:45.511Z,4.72
2022-09-23T01:18:24.260Z,4.60
2022-09-23T01:21:16.539Z,4.53
2022-09-23T01:24:21.074Z,4.44
2022-09-23T01:26:59.620Z,4.37
2022-09-23T01:29:50.718Z,4.28
2022-09-23T01:32:31.083Z,4.40
2022-09-23T01:35:06.946Z,4.32
2022-09-23T01:37:43.688Z,4.28
2022-09-23T01:40:18.445Z,4.14
2022-09-23T01:42:54.349Z,4.04
2022-09-23T01:45:29.781Z,3.95
2022-09-23T01:48:04.284Z,3.92
2022-09-23T01:50:53.224Z,3.90
2022-09-23T01:53:27.866Z,3.86
2022-09-23T01:56:00.166Z,3.82
2022-09-23T01:58:32.664Z,3.92
2022-09-23T02:01:02.814Z,4.02
2022-09-23T02:03:36.295Z,3.95
2022-09-23T02:06:08.093Z,4.08
2022-09-23T02:08:38.291Z,4.10
2022-09-23T02:11:09.742Z,4.02
2022-09-23T02:13:42.315Z,3.99
2022-09-23T02:16:17.147Z,3.97
2022-09-23T02:18:52.767Z,3.96
2022-09-23T02:21:24.281Z,4.00
2022-09-23T02:23:53.868Z,4.00
2022-09-23T02:26:29.404Z,3.99
2022-09-23T02:29:04.394Z,3.94
2022-09-23T02:31:39.459Z,3.94
2022-09-23T02:34:18.346Z,3.88
2022-09-23T02:36:53.823Z,3.87
2022-09-23T02:39:25.192Z,3.84
2022-09-23T02:42:01.675Z,3.82
2022-09-23T02:44:29.439Z,3.84
2022-09-23T02:46:57.867Z,3.86
2022-09-23T02:49:29.246Z,3.82
2022-09-23T02:51:57.810Z,3.82
2022-09-23T02:54:28.696Z,3.80
2022-09-23T02:56:57.239Z,3.86
2022-09-23T02:59:25.500Z,3.87
2022-09-23T03:02:06.439Z,3.85
2022-09-23T03:04:43.440Z,3.91
2022-09-23T03:07:16.771Z,3.90
2022-09-23T03:09:54.359Z,3.93
2022-09-23T03:12:34.240Z,3.96
2022-09-23T03:15:10.844Z,4.09
2022-09-23T03:17:44.812Z,4.22
2022-09-23T03:20:21.326Z,4.32
2022-09-23T03:22:53.868Z,4.38
2022-09-23T03:25:25.070Z,4.40
2022-09-23T03:27:57.875Z,4.28
2022-09-23T03:30:26.355Z,4.22
2022-09-23T03:32:55.541Z,4.19
2022-09-23T03:35:26.580Z,4.26
2022-09-23T03:37:58.196Z,4.41
2022-09-23T03:40:30.521Z,4.63
2022-09-23T03:43:01.012Z,4.52
2022-09-23T03:45:32.507Z,4.46
2022-09-23T03:48:00.400Z,4.41
2022-09-23T03:50:29.952Z,4.48
2022-09-23T03:52:57.444Z,4.51
2022-09-23T03:55:24.893Z,4.46
2022-09-23T03:57:52.513Z,4.45
2022-09-23T04:00:19.996Z,4.41
2022-09-23T04:02:47.412Z,4.46
2022-09-23T04:05:15.131Z,4.41
2022-09-23T04:07:43.912Z,4.36
2022-09-23T04:10:11.772Z,4.27
2022-09-23T04:12:39.364Z,4.19
2022-09-23T04:15:07.989Z,4.14
2022-09-23T04:17:35.432Z,4.08
2022-09-23T04:20:03.399Z,4.01
2022-09-23T04:22:30.959Z,4.00
2022-09-23T04:24:59.704Z,3.93
2022-09-23T04:27:28.091Z,3.81
2022-09-23T04:29:55.483Z,3.78
2022-09-23T04:32:24.367Z,3.82
2022-09-23T04:34:51.773Z,3.74
2022-09-23T04:37:19.295Z,3.77
2022-09-23T04:39:46.724Z,3.75
2022-09-23T04:42:15.479Z,3.69
2022-09-23T04:44:42.925Z,3.70
2022-09-23T04:47:10.298Z,3.64
2022-09-23T04:49:38.250Z,3.54
2022-09-23T04:52:06.279Z,3.53
2022-09-23T04:54:33.661Z,3.46
2022-09-23T04:57:01.043Z,3.57
2022-09-23T04:59:30.074Z,3.68
2022-09-23T05:01:57.480Z,3.67
2022-09-23T05:04:24.906Z,3.65
2022-09-23T05:06:52.279Z,3.55
2022-09-23T05:09:19.651Z,3.49
2022-09-23T05:11:47.237Z,3.46
2022-09-23T05:14:15.072Z,3.35
2022-09-23T05:16:43.853Z,3.36
2022-09-23T05:19:13.328Z,3.38
2022-09-23T05:21:40.745Z,3.43
2022-09-23T05:24:08.651Z,3.54
2022-09-23T05:26:36.067Z,3.53
2022-09-23T05:29:03.599Z,3.55
2022-09-23T05:31:31.521Z,3.67
2022-09-23T05:34:02.844Z,3.77
2022-09-23T05:36:36.930Z,3.81
2022-09-23T05:39:06.411Z,3.89
2022-09-23T05:41:34.367Z,3.88
2022-09-23T05:44:02.387Z,3.91
2022-09-23T05:46:31.669Z,3.89
2022-09-23T05:49:03.338Z,3.90
2022-09-23T05:51:32.217Z,3.91
2022-09-23T05:54:03.900Z,4.01
2022-09-23T05:56:32.608Z,4.00
2022-09-23T05:59:01.693Z,4.02
2022-09-23T06:01:33.289Z,4.01
2022-09-23T06:04:03.678Z,3.90
2022-09-23T06:06:33.201Z,3.94
2022-09-23T06:09:01.443Z,4.00
2022-09-23T06:11:31.530Z,4.12
2022-09-23T06:14:00.929Z,4.24
2022-09-23T06:16:29.439Z,4.32
2022-09-23T06:18:58.868Z,4.41
2022-09-23T06:21:30.782Z,4.61
2022-09-23T06:24:00.059Z,4.80
2022-09-23T06:26:28.985Z,4.98
2022-09-23T06:28:57.125Z,5.14
2022-09-23T06:31:24.564Z,5.38
2022-09-23T06:34:00.307Z,5.41
2022-09-23T06:36:42.680Z,5.52
2022-09-23T06:39:11.708Z,5.69
2022-09-23T06:41:39.187Z,5.78
2022-09-23T06:44:06.758Z,5.82
2022-09-23T06:46:34.314Z,5.88
2022-09-23T06:49:03.094Z,6.01
2022-09-23T06:51:31.867Z,6.27
2022-09-23T06:53:59.297Z,6.49
2022-09-23T06:56:26.771Z,6.77
2022-09-23T06:58:54.580Z,6.94
2022-09-23T07:01:23.083Z,7.18
2022-09-23T07:03:50.478Z,7.42
2022-09-23T07:06:18.651Z,7.67
2022-09-23T07:08:48.111Z,7.89
2022-09-23T07:11:19.224Z,8.19
2022-09-23T07:13:46.603Z,8.40
2022-09-23T07:16:14.047Z,8.54
2022-09-23T07:18:42.580Z,8.75
2022-09-23T07:21:13.033Z,8.97
2022-09-23T07:23:40.400Z,9.12
2022-09-23T07:26:09.499Z,9.31
2022-09-23T07:28:38.210Z,9.54
2022-09-23T07:31:07.840Z,9.74
2022-09-23T07:33:36.439Z,10.06
2022-09-23T07:36:08.225Z,10.49
2022-09-23T07:38:36.337Z,10.71
2022-09-23T07:41:06.199Z,10.76
2022-09-23T07:43:35.241Z,10.92
2022-09-23T07:46:05.360Z,11.04
2022-09-23T07:48:34.556Z,11.27
2022-09-23T07:51:06.592Z,11.39
2022-09-23T07:53:34.007Z,11.68
2022-09-23T07:56:01.456Z,12.00
2022-09-23T07:58:28.837Z,12.31
2022-09-23T08:01:02.844Z,12.66
2022-09-23T08:03:30.264Z,12.71
2022-09-23T08:06:05.126Z,12.72
2022-09-23T08:08:32.747Z,12.99
2022-09-23T08:11:04.947Z,13.18
2022-09-23T08:13:34.157Z,13.62
2022-09-23T08:16:03.455Z,13.87
2022-09-23T08:18:31.171Z,14.24
2022-09-23T08:20:58.571Z,14.42
2022-09-23T08:23:26.221Z,14.50
2022-09-23T08:25:59.868Z,14.41
2022-09-23T08:28:28.004Z,14.53
2022-09-23T08:30:56.201Z,14.58
2022-09-23T08:33:25.367Z,14.67
2022-09-23T08:35:53.660Z,14.61
2022-09-23T08:38:21.355Z,14.64
2022-09-23T08:40:50.494Z,14.58
2022-09-23T08:43:27.888Z,14.51
2022-09-23T08:45:58.295Z,14.49
2022-09-23T08:48:30.525Z,14.50
2022-09-23T08:51:04.930Z,14.42
2022-09-23T08:53:34.875Z,14.43
2022-09-23T08:56:07.992Z,14.51
2022-09-23T08:58:46.187Z,14.59
2022-09-23T09:01:22.710Z,14.61
2022-09-23T09:03:54.908Z,14.60
2022-09-23T09:06:28.796Z,14.50
2022-09-23T09:09:00.793Z,14.49
2022-09-23T09:11:35.113Z,14.49
2022-09-23T09:14:16.480Z,14.45
2022-09-23T09:16:59.880Z,14.44
2022-09-23T09:19:51.799Z,14.32
2022-09-23T09:22:24.823Z,14.34
2022-09-23T09:24:55.876Z,14.39
2022-09-23T09:27:24.973Z,14.49
2022-09-23T09:29:55.360Z,14.50
2022-09-23T09:32:34.194Z,14.58
2022-09-23T09:35:10.164Z,14.67
2022-09-23T09:37:44.465Z,14.73
2022-09-23T09:40:13.494Z,14.83
2022-09-23T09:42:42.767Z,14.88
2022-09-23T09:45:19.659Z,14.85
2022-09-23T09:47:52.361Z,14.93
2022-09-23T09:50:45.425Z,15.02
2022-09-23T09:53:22.209Z,15.25
2022-09-23T09:56:04.367Z,15.31
2022-09-23T09:58:41.507Z,15.37
2022-09-23T10:01:09.339Z,15.25
2022-09-23T10:03:40.644Z,15.32
2022-09-23T10:06:19.122Z,15.47
2022-09-23T10:09:05.711Z,15.57
2022-09-23T10:11:33.920Z,15.78
2022-09-23T10:14:05.892Z,15.80
2022-09-23T10:16:35.276Z,15.70
2022-09-23T10:19:04.362Z,15.56
2022-09-23T10:21:37.855Z,15.44
2022-09-23T10:24:07.794Z,15.43
2022-09-23T10:26:42.020Z,15.39
2022-09-23T10:29:23.394Z,15.39
2022-09-23T10:31:53.699Z,15.49
2022-09-23T10:34:25.729Z,15.63
2022-09-23T10:37:02.953Z,15.75
2022-09-23T10:39:47.962Z,15.88
2022-09-23T10:42:43.179Z,15.90
2022-09-23T10:45:41.202Z,15.81
2022-09-23T10:48:21.623Z,15.72
2022-09-23T10:50:51.112Z,15.75
2022-09-23T10:53:32.165Z,15.87
2022-09-23T10:56:17.282Z,15.77
2022-09-23T10:59:00.945Z,15.79
2022-09-23T11:01:39.998Z,16.07
2022-09-23T11:04:35.526Z,16.03
2022-09-23T11:07:17.109Z,15.99
2022-09-23T11:10:00.808Z,16.03
2022-09-23T11:12:38.799Z,16.22
2022-09-23T11:15:32.561Z,16.39
2022-09-23T11:18:26.395Z,16.45
2022-09-23T11:21:07.261Z,16.32
2022-09-23T11:23:56.602Z,16.34
2022-09-23T11:26:35.797Z,16.42
2022-09-23T11:29:23.879Z,16.38
2022-09-23T11:32:00.124Z,16.38
2022-09-23T11:34:55.162Z,16.32
2022-09-23T11:37:27.488Z,16.18
2022-09-23T11:40:04.232Z,16.28
2022-09-23T11:42:37.383Z,16.29
2022-09-23T11:45:10.653Z,16.41
2022-09-23T11:47:43.433Z,16.56
2022-09-23T11:50:19.821Z,16.74
2022-09-23T11:52:52.507Z,16.64
2022-09-23T11:55:24.287Z,16.80
2022-09-23T11:57:56.960Z,17.01
2022-09-23T12:00:26.456Z,17.11
2022-09-23T12:03:09.115Z,17.19
2022-09-23T12:05:40.701Z,17.04
2022-09-23T12:08:17.764Z,16.79
2022-09-23T12:10:54.314Z,16.66
2022-09-23T12:13:34.831Z,16.79
2022-09-23T12:16:32.965Z,16.90
2022-09-23T12:19:12.719Z,16.80
2022-09-23T12:22:01.607Z,16.86
2022-09-23T12:24:48.068Z,17.03
2022-09-23T12:27:31.796Z,17.07
2022-09-23T12:30:04.617Z,17.09
2022-09-23T12:32:33.011Z,17.17
2022-09-23T12:35:02.621Z,17.13
2022-09-23T12:37:34.216Z,17.13
2022-09-23T12:40:09.160Z,17.18
2022-09-23T12:42:45.757Z,17.15
2022-09-23T12:45:39.624Z,17.02
2022-09-23T12:48:43.936Z,16.97
2022-09-23T12:51:20.737Z,17.11
2022-09-23T12:53:57.364Z,17.18
2022-09-23T12:56:27.444Z,17.16
2022-09-23T12:58:59.112Z,17.20
2022-09-23T13:01:28.555Z,17.26
2022-09-23T13:04:16.098Z,17.25
2022-09-23T13:06:53.345Z,17.12
2022-09-23T13:09:25.460Z,16.94
2022-09-23T13:11:56.866Z,16.75
2022-09-23T13:14:27.737Z,16.83
2022-09-23T13:16:58.626Z,16.79
2022-09-23T13:19:46.977Z,16.82
2022-09-23T13:22:14.612Z,16.82
2022-09-23T13:24:44.240Z,16.75
2022-09-23T13:27:20.717Z,16.67
2022-09-23T13:29:54.342Z,16.62
2022-09-23T13:32:29.173Z,16.48
2022-09-23T13:34:59.140Z,16.37
2022-09-23T13:37:32.360Z,16.24
2022-09-23T13:40:20.972Z,16.29
2022-09-23T13:42:52.234Z,16.22
2022-09-23T13:45:22.179Z,16.31
2022-09-23T13:47:53.242Z,16.36
2022-09-23T13:50:23.208Z,16.26
2022-09-23T13:52:54.479Z,16.22
2022-09-23T13:55:27.596Z,16.08
2022-09-23T13:58:00.669Z,16.08
2022-09-23T14:00:38.404Z,15.99
2022-09-23T14:03:35.195Z,16.00
2022-09-23T14:06:08.407Z,16.01
2022-09-23T14:08:35.845Z,16.06
2022-09-23T14:11:06.107Z,16.09
2022-09-23T14:13:38.486Z,16.10
2022-09-23T14:16:06.429Z,16.15
2022-09-23T14:18:39.060Z,16.17
2022-09-23T14:21:07.695Z,16.00
2022-09-23T14:23:35.085Z,15.90
2022-09-23T14:26:03.416Z,15.87
2022-09-23T14:28:30.962Z,15.92
2022-09-23T14:30:59.016Z,15.88
2022-09-23T14:33:31.700Z,15.82
2022-09-23T14:36:16.796Z,15.84
2022-09-23T14:38:52.396Z,15.72
2022-09-23T14:41:23.821Z,15.67
2022-09-23T14:43:58.011Z,15.60
2022-09-23T14:46:27.101Z,15.59
2022-09-23T14:49:02.125Z,15.60
2022-09-23T14:51:34.042Z,15.66
2022-09-23T14:54:24.190Z,15.73
2022-09-23T14:56:51.648Z,15.63
2022-09-23T14:59:27.442Z,15.64
2022-09-23T15:01:55.340Z,15.57
2022-09-23T15:04:32.205Z,15.56
2022-09-23T15:07:05.312Z,15.54
2022-09-23T15:09:34.328Z,15.49
2022-09-23T15:12:03.886Z,15.36
2022-09-23T15:14:39.068Z,15.35
2022-09-23T15:17:16.491Z,15.30
2022-09-23T15:19:44.047Z,15.28
2022-09-23T15:22:13.183Z,15.25
2022-09-23T15:24:45.052Z,15.28
2022-09-23T15:27:25.237Z,15.25
2022-09-23T15:29:54.175Z,15.15
2022-09-23T15:32:21.666Z,15.11
2022-09-23T15:34:52.088Z,15.03
2022-09-23T15:37:20.820Z,15.04
2022-09-23T15:39:48.958Z,14.96
2022-09-23T15:42:18.145Z,14.86
2022-09-23T15:44:45.576Z,14.79
2022-09-23T15:47:18.684Z,14.83
2022-09-23T15:49:47.946Z,14.76
2022-09-23T15:52:16.330Z,14.60
2022-09-23T15:54:45.903Z,14.61
2022-09-23T15:57:13.280Z,14.51
2022-09-23T15:59:40.871Z,14.46
2022-09-23T16:02:20.088Z,14.37
2022-09-23T16:04:50.161Z,14.31
2022-09-23T16:07:19.562Z,14.24
2022-09-23T16:09:48.349Z,14.17
2022-09-23T16:12:15.864Z,14.09
2022-09-23T16:14:43.349Z,14.00
2022-09-23T16:17:14.015Z,13.98
2022-09-23T16:19:41.418Z,14.01
2022-09-23T16:22:08.852Z,14.00
2022-09-23T16:24:36.251Z,13.94
2022-09-23T16:27:07.669Z,13.95
2022-09-23T16:29:35.063Z,13.91
2022-09-23T16:32:03.071Z,13.86
2022-09-23T16:34:30.541Z,13.80
2022-09-23T16:36:57.929Z,13.79
2022-09-23T16:39:25.323Z,13.74
2022-09-23T16:41:52.719Z,13.60
2022-09-23T16:44:21.472Z,13.52
2022-09-23T16:46:48.998Z,13.44
2022-09-23T16:49:16.395Z,13.36
2022-09-23T16:51:43.815Z,13.38
2022-09-23T16:54:13.435Z,13.34
2022-09-23T16:56:44.856Z,13.31
2022-09-23T16:59:12.949Z,13.28
2022-09-23T17:01:59.452Z,13.18
2022-09-23T17:04:27.587Z,13.13
2022-09-23T17:06:55.893Z,12.99
2022-09-23T17:09:25.526Z,12.97
2022-09-23T17:11:58.554Z,12.92
2022-09-23T17:14:26.084Z,12.84
2022-09-23T17:16:54.840Z,12.78
2022-09-23T17:19:22.246Z,12.70
2022-09-23T17:21:49.640Z,12.63
2022-09-23T17:24:17.039Z,12.63
2022-09-23T17:26:52.021Z,12.62
2022-09-23T17:29:20.396Z,12.58
2022-09-23T17:31:47.882Z,12.56
2022-09-23T17:34:19.033Z,12.50
2022-09-23T17:36:46.447Z,12.34
2022-09-23T17:39:13.874Z,12.30
2022-09-23T17:41:41.275Z,12.25
2022-09-23T17:44:11.260Z,12.20
2022-09-23T17:46:38.686Z,12.22
2022-09-23T17:49:06.638Z,12.20
2022-09-23T17:51:35.456Z,12.00
2022-09-23T17:54:02.859Z,11.90
2022-09-23T17:56:30.739Z,11.81
2022-09-23T17:59:01.564Z,11.76
2022-09-23T18:01:29.220Z,11.73
2022-09-23T18:03:57.911Z,11.77
2022-09-23T18:06:27.686Z,11.74
2022-09-23T18:08:57.271Z,11.57
2022-09-23T18:11:26.876Z,11.54
2022-09-23T18:13:56.700Z,11.46
2022-09-23T18:16:26.363Z,11.39
2022-09-23T18:18:54.282Z,11.38
2022-09-23T18:21:22.440Z,11.21
2022-09-23T18:23:50.401Z,11.15
2022-09-23T18:26:21.222Z,11.09
2022-09-23T18:28:48.831Z,11.04
2022-09-23T18:31:16.695Z,10.94
2022-09-23T18:33:44.148Z,10.91
2022-09-23T18:36:11.556Z,10.84
2022-09-23T18:38:39.725Z,10.85
2022-09-23T18:41:07.171Z,10.81
2022-09-23T18:43:40.790Z,10.77
2022-09-23T18:46:13.298Z,10.72
2022-09-23T18:48:58.734Z,10.71
2022-09-23T18:51:28.923Z,10.65
2022-09-23T18:53:57.606Z,10.53
2022-09-23T18:56:26.923Z,10.53
2022-09-23T18:58:56.530Z,10.48
2022-09-23T19:01:24.837Z,10.44
2022-09-23T19:03:55.367Z,10.39
2022-09-23T19:06:23.595Z,10.25
2022-09-23T19:08:51.961Z,10.22
2022-09-23T19:11:20.254Z,10.19
2022-09-23T19:13:47.939Z,10.09
2022-09-23T19:16:17.803Z,10.11
2022-09-23T19:18:46.550Z,10.07
2022-09-23T19:21:16.987Z,9.99
2022-09-23T19:23:47.733Z,10.02
2022-09-23T19:26:17.308Z,9.86
2022-09-23T19:28:48.940Z,9.79
2022-09-23T19:31:19.975Z,9.76
2022-09-23T19:33:56.374Z,9.83
2022-09-23T19:36:25.949Z,9.92
2022-09-23T19:38:54.995Z,9.85
2022-09-23T19:41:22.415Z,9.78
2022-09-23T19:43:49.845Z,9.73
2022-09-23T19:46:19.359Z,9.51
2022-09-23T19:48:46.984Z,9.27
2022-09-23T19:51:14.674Z,9.23
2022-09-23T19:53:42.572Z,9.14
2022-09-23T19:56:09.984Z,9.12
2022-09-23T19:58:37.377Z,9.11
2022-09-23T20:01:07.855Z,9.10
2022-09-23T20:03:36.680Z,9.17
2022-09-23T20:06:04.207Z,9.01
2022-09-23T20:08:31.644Z,9.11
2022-09-23T20:10:59.046Z,9.09
2022-09-23T20:13:27.055Z,9.08
2022-09-23T20:15:54.508Z,9.07
2022-09-23T20:18:21.930Z,9.06
2022-09-23T20:20:55.763Z,9.03
2022-09-23T20:23:23.146Z,8.99
2022-09-23T20:26:13.632Z,8.82
2022-09-23T20:28:41.070Z,8.81
2022-09-23T20:31:08.507Z,8.71
2022-09-23T20:33:37.697Z,8.66
2022-09-23T20:36:07.451Z,8.63
2022-09-23T20:38:34.902Z,8.58
2022-09-23T20:41:02.725Z,8.59
2022-09-23T20:43:32.871Z,8.56
2022-09-23T20:46:01.618Z,8.50
2022-09-23T20:48:30.485Z,8.49
2022-09-23T20:51:01.109Z,8.44
2022-09-23T20:53:30.976Z,8.35
2022-09-23T20:55:58.671Z,8.47
2022-09-23T20:58:29.019Z,8.43
2022-09-23T21:01:02.641Z,8.37
2022-09-23T21:03:31.594Z,8.42
2022-09-23T21:06:03.291Z,8.22
2022-09-23T21:08:33.248Z,8.21
2022-09-23T21:11:04.983Z,8.18
2022-09-23T21:13:34.424Z,8.07
2022-09-23T21:16:03.943Z,8.01
2022-09-23T21:18:31.465Z,8.02
2022-09-23T21:21:00.194Z,7.98
2022-09-23T21:23:28.559Z,7.95
2022-09-23T21:26:02.017Z,7.96
2022-09-23T21:28:33.368Z,8.02
2022-09-23T21:31:01.614Z,7.90
2022-09-23T21:33:30.302Z,7.88
2022-09-23T21:35:59.646Z,7.74
2022-09-23T21:38:27.050Z,7.69
2022-09-23T21:40:58.965Z,7.67
2022-09-23T21:43:29.432Z,7.59
2022-09-23T21:45:59.539Z,7.58
2022-09-23T21:48:28.837Z,7.61
2022-09-23T21:50:58.249Z,7.43
2022-09-23T21:53:26.425Z,7.28
2022-09-23T21:55:53.991Z,7.35
2022-09-23T21:58:22.473Z,7.31
2022-09-23T22:00:51.310Z,7.23
2022-09-23T22:03:18.810Z,7.16
2022-09-23T22:05:46.226Z,7.23
2022-09-23T22:08:13.631Z,7.06
2022-09-23T22:10:41.030Z,6.96
2022-09-23T22:13:12.769Z,6.96
2022-09-23T22:15:40.509Z,6.96
2022-09-23T22:18:09.239Z,6.98
2022-09-23T22:20:36.993Z,6.94
2022-09-23T22:23:04.381Z,6.93
2022-09-23T22:25:33.108Z,7.02
2022-09-23T22:28:18.098Z,7.04
2022-09-23T22:31:03.339Z,6.99
2022-09-23T22:33:32.096Z,6.95
2022-09-23T22:36:02.513Z,6.87
2022-09-23T22:38:31.074Z,6.89
2022-09-23T22:40:59.709Z,6.80
2022-09-23T22:43:27.194Z,6.74
2022-09-23T22:45:54.582Z,6.81
2022-09-23T22:48:22.015Z,6.86
2022-09-23T22:50:50.795Z,6.83
2022-09-23T22:53:18.680Z,6.86
2022-09-23T22:55:46.074Z,6.96
2022-09-23T22:58:31.028Z,7.00
2022-09-23T23:00:59.522Z,7.11
2022-09-23T23:03:27.362Z,7.04
2022-09-23T23:05:59.957Z,7.05
2022-09-23T23:08:27.641Z,7.10
2022-09-23T23:10:55.775Z,7.08
2022-09-23T23:13:24.394Z,7.05
2022-09-23T23:15:51.861Z,7.03
2022-09-23T23:18:19.435Z,7.09
2022-09-23T23:20:46.838Z,7.06
2022-09-23T23:23:15.667Z,7.15
2022-09-23T23:25:43.076Z,7.10
2022-09-23T23:28:10.581Z,7.05
2022-09-23T23:30:37.962Z,7.05
2022-09-23T23:33:05.369Z,7.09
2022-09-23T23:35:32.776Z,7.02
2022-09-23T23:38:00.510Z,7.08
2022-09-23T23:40:29.264Z,6.98
2022-09-23T23:42:56.692Z,6.99
2022-09-23T23:45:24.101Z,6.87
2022-09-23T23:47:51.485Z,6.91
2022-09-23T23:50:18.924Z,6.84
2022-09-23T23:52:46.368Z,6.78
2022-09-23T23:55:14.273Z,6.83
2022-09-23T23:57:43.113Z,6.85
